Terminal Aerodrome Forecast
Issued by NWS

Home | Current Version | Previous Version | Text Only | Print | Product List | Glossary On
Versions: 1 2 3 4 5 6 7 8 9 10 11 12 13 14 15 16
000
FTUS44 KTSA 261800 AAA
TAFXNA
TAF AMD
KXNA 261849Z 2619/2718 08010KT P6SM SCT023
     FM262000 09012KT P6SM SCT035 SCT150
     FM270000 09009KT P6SM BKN035 PROB30 2708/2714 -TSRA BKN025CB
     FM271400 09006KT 5SM -TSRA BR OVC035CB=

USA.gov is the U.S. government's official web portal to all federal, state and local government web resources and services.